Time;durP1;ratioP1;P1;durP2;ratioP2;P2;SDS_P1;SDS_P2;PMS_P1;PMS_P2;Temp;Humidity;BMP_temperature;BMP_pressure;BME280_temperature;BME280_humidity;BME280_pressure;Samples;Min_cycle;Max_cycle;Signal;HPM_P1;HPM_P2
2022/05/13 00:00:28;;;;;;;7.82;5.28;;;18.20;21.70;;;;;;7358511;19;20359;-59
2022/05/13 00:02:58;;;;;;;6.43;5.30;;;18.30;21.90;;;;;;7369136;19;20397;-60
2022/05/13 00:05:28;;;;;;;6.10;5.40;;;18.30;22.00;;;;;;7366301;19;20010;-60
2022/05/13 00:07:58;;;;;;;5.95;5.22;;;18.30;22.20;;;;;;7392093;19;20037;-60
2022/05/13 00:10:28;;;;;;;9.25;5.38;;;18.20;23.00;;;;;;7360408;19;20431;-59
2022/05/13 00:12:58;;;;;;;6.55;4.95;;;18.10;22.50;;;;;;7369426;19;20101;-59
2022/05/13 00:15:31;;;;;;;6.60;5.20;;;18.20;22.90;;;;;;7368779;19;20086;-59
2022/05/13 00:18:01;;;;;;;7.53;5.30;;;18.20;22.10;;;;;;7369773;19;20074;-60
2022/05/13 00:20:31;;;;;;;6.13;4.82;;;18.20;22.60;;;;;;7358951;19;20037;-60
2022/05/13 00:23:01;;;;;;;9.73;6.13;;;18.20;22.80;;;;;;7391280;19;20010;-59
2022/05/13 00:25:35;;;;;;;7.28;5.00;;;18.20;22.20;;;;;;7366097;19;20018;-59
2022/05/13 00:28:06;;;;;;;;;;;18.20;22.90;;;;;;7369151;19;20015;-60
2022/05/13 00:30:42;;;;;;;8.27;5.88;;;18.20;23.30;;;;;;7362052;19;19917;-59
2022/05/13 00:33:12;;;;;;;8.02;5.63;;;18.20;22.70;;;;;;7367590;19;20474;-60
2022/05/13 00:35:43;;;;;;;7.15;5.25;;;18.20;22.90;;;;;;7366891;19;20023;-59
2022/05/13 00:38:13;;;;;;;6.53;4.80;;;18.20;22.20;;;;;;7388759;19;20019;-60
2022/05/13 00:40:44;;;;;;;7.47;5.25;;;18.20;22.30;;;;;;7360071;19;20010;-60
2022/05/13 00:43:16;;;;;;;9.95;6.05;;;18.10;22.10;;;;;;7366979;19;20011;-59
2022/05/13 00:45:49;;;;;;;7.93;5.35;;;18.20;23.10;;;;;;7367660;19;20085;-59
2022/05/13 00:48:18;;;;;;;6.35;5.60;;;18.20;22.40;;;;;;7363679;19;20081;-60
2022/05/13 00:50:48;;;;;;;8.68;5.95;;;18.10;22.40;;;;;;7363863;19;20024;-60
2022/05/13 00:53:18;;;;;;;7.80;5.30;;;18.10;22.10;;;;;;7389952;19;20094;-60
2022/05/13 00:55:48;;;;;;;10.50;7.40;;;18.20;22.40;;;;;;7366393;19;20347;-60
2022/05/13 00:58:21;;;;;;;6.13;4.82;;;18.10;22.40;;;;;;7363404;19;20748;-60
2022/05/13 01:00:54;;;;;;;8.57;5.78;;;18.10;22.90;;;;;;7362850;19;20015;-60
2022/05/13 01:03:23;;;;;;;7.53;5.32;;;18.20;22.10;;;;;;7361223;19;20011;-60
2022/05/13 01:05:59;;;;;;;6.80;5.05;;;18.20;21.90;;;;;;7364533;19;20113;-60
2022/05/13 01:08:33;;;;;;;8.40;5.90;;;18.10;23.60;;;;;;7367796;19;20378;-60
2022/05/13 01:11:07;;;;;;;6.72;5.20;;;18.00;26.60;;;;;;7389720;19;20021;-60
2022/05/13 01:13:38;;;;;;;8.43;5.55;;;17.90;26.40;;;;;;7362679;19;20105;-60
2022/05/13 01:16:10;;;;;;;7.85;5.57;;;17.90;27.40;;;;;;7367938;19;20074;-60
2022/05/13 01:18:40;;;;;;;6.85;5.43;;;17.90;28.40;;;;;;7367021;19;20027;-59
2022/05/13 01:21:11;;;;;;;6.57;5.40;;;17.90;27.40;;;;;;7366767;19;20123;-60
2022/05/13 01:23:47;;;;;;;6.38;5.40;;;17.80;29.20;;;;;;7362033;19;20040;-60
2022/05/13 01:26:20;;;;;;;7.72;5.40;;;17.80;30.00;;;;;;7389202;19;20021;-59
2022/05/13 01:28:52;;;;;;;9.10;5.82;;;17.70;31.20;;;;;;7365532;19;20011;-59
2022/05/13 01:31:29;;;;;;;9.95;5.72;;;17.70;32.00;;;;;;7365834;19;20369;-59
2022/05/13 01:34:01;;;;;;;8.05;5.57;;;17.70;32.00;;;;;;7359797;19;20018;-59
2022/05/13 01:36:31;;;;;;;7.75;5.05;;;17.60;30.20;;;;;;7367587;19;20303;-59
2022/05/13 01:39:04;;;;;;;8.40;5.60;;;17.50;31.50;;;;;;7366559;19;20048;-60
2022/05/13 01:41:34;;;;;;;8.13;5.35;;;17.50;30.00;;;;;;7364374;19;20020;-60
2022/05/13 01:44:04;;;;;;;6.50;4.72;;;17.40;30.80;;;;;;7381710;19;20014;-60
2022/05/13 01:46:34;;;;;;;7.57;5.40;;;17.40;30.60;;;;;;7363176;19;20010;-60
2022/05/13 01:49:04;;;;;;;6.40;4.78;;;17.50;31.30;;;;;;7364264;19;20006;-60
2022/05/13 01:51:34;;;;;;;9.73;4.90;;;17.50;31.10;;;;;;7365308;19;20022;-60
2022/05/13 01:54:07;;;;;;;6.05;5.07;;;17.40;30.00;;;;;;7358336;19;20475;-59
2022/05/13 01:56:36;;;;;;;6.35;4.70;;;17.40;29.70;;;;;;7364573;19;20036;-60
2022/05/13 01:59:06;;;;;;;5.55;4.75;;;17.30;29.50;;;;;;7386001;19;20077;-60
2022/05/13 02:01:36;;;;;;;7.57;4.70;;;17.40;30.60;;;;;;7362669;19;20024;-61
2022/05/13 02:04:04;;;;;;;11.52;4.82;;;17.30;30.00;;;;;;7357865;19;20022;-60
2022/05/13 02:06:34;;;;;;;7.15;4.60;;;17.30;31.30;;;;;;7363018;19;20386;-61
2022/05/13 02:09:07;;;;;;;6.40;4.90;;;17.30;31.50;;;;;;7364739;19;20085;-61
2022/05/13 02:11:37;;;;;;;8.43;4.85;;;17.20;31.70;;;;;;7364543;19;20010;-61
2022/05/13 02:14:08;;;;;;;5.63;4.40;;;17.10;31.60;;;;;;7383973;19;20011;-60
2022/05/13 02:16:38;;;;;;;7.90;4.72;;;16.90;31.10;;;;;;7371844;19;20481;-61
2022/05/13 02:19:08;;;;;;;6.65;4.45;;;17.10;31.50;;;;;;7372433;19;20554;-60
2022/05/13 02:21:38;;;;;;;7.20;4.63;;;17.00;30.10;;;;;;7372885;19;20070;-61
2022/05/13 02:24:12;;;;;;;7.85;4.38;;;17.10;31.40;;;;;;7365793;19;20014;-60
2022/05/13 02:26:41;;;;;;;6.07;3.95;;;17.10;29.80;;;;;;7369017;19;20493;-59
2022/05/13 02:29:11;;;;;;;6.38;3.78;;;17.10;27.90;;;;;;7394549;19;20014;-59
2022/05/13 02:31:41;;;;;;;8.95;4.72;;;17.20;30.20;;;;;;7371995;19;20676;-59
2022/05/13 02:34:11;;;;;;;7.90;4.72;;;17.20;31.40;;;;;;7365486;19;20010;-59
2022/05/13 02:36:41;;;;;;;10.52;4.75;;;17.10;31.70;;;;;;7372372;19;20016;-60
2022/05/13 02:39:14;;;;;;;5.35;4.32;;;17.10;33.70;;;;;;7372522;19;20018;-59
2022/05/13 02:41:44;;;;;;;7.85;5.00;;;17.10;34.70;;;;;;7370495;19;20022;-60
2022/05/13 02:44:14;;;;;;;10.23;5.32;;;17.00;34.70;;;;;;7388948;19;20425;-60
2022/05/13 02:46:43;;;;;;;8.15;5.00;;;17.00;34.80;;;;;;7371392;19;20018;-61
2022/05/13 02:49:13;;;;;;;8.93;5.57;;;17.00;34.60;;;;;;7371442;19;20025;-60
2022/05/13 02:51:43;;;;;;;8.00;5.38;;;17.00;36.00;;;;;;7372960;19;20011;-60
2022/05/13 02:54:16;;;;;;;8.30;5.00;;;17.00;35.90;;;;;;7363987;19;20028;-60
2022/05/13 02:56:46;;;;;;;10.30;5.50;;;16.90;35.60;;;;;;7370556;19;20505;-60
2022/05/13 02:59:16;;;;;;;11.63;5.70;;;16.90;34.50;;;;;;7394100;19;20017;-60
2022/05/13 03:01:46;;;;;;;8.75;4.80;;;16.90;35.10;;;;;;7370586;19;20013;-60
2022/05/13 03:04:16;;;;;;;5.75;4.85;;;17.00;35.30;;;;;;7363644;19;20359;-60
2022/05/13 03:06:46;;;;;;;8.98;5.00;;;16.90;35.30;;;;;;7370187;19;20498;-60
2022/05/13 03:09:18;;;;;;;6.45;5.15;;;16.80;36.00;;;;;;7370024;19;20014;-60
2022/05/13 03:11:48;;;;;;;6.65;5.03;;;16.80;36.60;;;;;;7371521;19;20025;-60
2022/05/13 03:14:18;;;;;;;8.43;4.72;;;16.80;36.50;;;;;;7385914;19;20014;-60
2022/05/13 03:16:48;;;;;;;7.15;5.18;;;16.80;36.90;;;;;;7370844;19;20549;-60
2022/05/13 03:19:18;;;;;;;8.20;5.38;;;16.80;36.90;;;;;;7369473;19;20049;-60
2022/05/13 03:21:47;;;;;;;8.80;5.45;;;16.90;37.90;;;;;;7370454;19;20086;-60
2022/05/13 03:24:20;;;;;;;10.48;5.45;;;16.90;36.20;;;;;;7363317;19;20002;-60
2022/05/13 03:26:50;;;;;;;8.13;5.00;;;16.80;36.00;;;;;;7369843;19;20010;-59
2022/05/13 03:29:20;;;;;;;7.32;5.32;;;16.80;36.20;;;;;;7393145;19;20104;-59
2022/05/13 03:31:49;;;;;;;7.00;4.70;;;16.80;35.80;;;;;;7370467;19;20006;-59
2022/05/13 03:34:22;;;;;;;9.18;5.40;;;16.80;36.20;;;;;;7361374;19;20018;-60
2022/05/13 03:36:54;;;;;;;8.43;5.25;;;16.70;35.50;;;;;;7370324;19;20018;-60
2022/05/13 03:39:27;;;;;;;8.52;5.70;;;16.70;35.70;;;;;;7369866;19;20460;-61
2022/05/13 03:41:56;;;;;;;10.38;5.50;;;16.80;37.70;;;;;;7368811;19;20477;-60
2022/05/13 03:44:26;;;;;;;6.97;6.03;;;16.80;36.80;;;;;;7362448;19;20010;-60
2022/05/13 03:46:56;;;;;;;10.60;7.03;;;16.70;36.00;;;;;;7391084;19;20011;-60
2022/05/13 03:49:26;;;;;;;14.10;6.47;;;16.70;36.90;;;;;;7368949;19;20014;-60
2022/05/13 03:51:56;;;;;;;10.63;5.78;;;16.70;36.70;;;;;;7370335;19;20014;-60
2022/05/13 03:54:28;;;;;;;8.23;5.80;;;16.60;37.50;;;;;;7361790;19;20011;-60
2022/05/13 03:56:58;;;;;;;13.40;5.90;;;16.60;38.80;;;;;;7368473;19;20031;-60
2022/05/13 03:59:28;;;;;;;9.70;5.85;;;16.60;38.90;;;;;;7369848;19;20035;-60
2022/05/13 04:01:58;;;;;;;7.93;6.05;;;16.70;38.70;;;;;;7389567;19;20021;-59
2022/05/13 04:04:29;;;;;;;10.45;6.10;;;16.70;38.70;;;;;;7362270;19;20015;-59
2022/05/13 04:09:44;;;;;;;8.07;6.28;;;16.70;38.40;;;;;;7369057;19;20018;-60
2022/05/13 04:17:40;;;;;;;11.17;6.43;;;16.80;38.10;;;;;;7368070;19;20073;-60
2022/05/13 04:20:11;;;;;;;7.43;6.50;;;16.70;37.60;;;;;;7389928;19;20250;-59
2022/05/13 04:22:42;;;;;;;11.15;6.43;;;16.70;36.10;;;;;;7360422;19;20015;-59
2022/05/13 04:25:15;;;;;;;9.27;6.63;;;16.80;35.00;;;;;;7365786;19;20446;-60
2022/05/13 04:27:45;;;;;;;11.48;5.93;;;16.90;35.20;;;;;;7369396;19;20007;-60
2022/05/13 04:30:16;;;;;;;8.80;5.93;;;17.00;33.60;;;;;;7368754;19;20081;-60
2022/05/13 04:32:46;;;;;;;8.25;5.70;;;17.10;31.40;;;;;;7362714;19;20560;-60
2022/05/13 04:35:16;;;;;;;7.93;5.65;;;17.00;31.80;;;;;;7387610;19;20549;-60
2022/05/13 04:37:46;;;;;;;16.55;5.88;;;16.90;32.40;;;;;;7366135;19;20105;-60
2022/05/13 04:40:18;;;;;;;7.53;5.85;;;16.80;31.70;;;;;;7367429;19;20762;-60
2022/05/13 04:42:51;;;;;;;8.55;6.28;;;16.70;31.10;;;;;;7362643;19;20097;-61
2022/05/13 04:45:25;;;;;;;9.98;6.15;;;16.70;31.50;;;;;;7366637;19;20363;-61
2022/05/13 04:50:39;;;;;;;9.65;6.07;;;16.80;32.30;;;;;;7367910;19;20013;-59
2022/05/13 04:53:11;;;;;;;9.50;5.97;;;16.90;32.40;;;;;;7383704;19;20078;-59
2022/05/13 04:55:43;;;;;;;10.60;6.15;;;16.90;32.30;;;;;;7364992;19;20013;-59
2022/05/13 04:58:13;;;;;;;8.80;5.82;;;16.90;31.20;;;;;;7367173;19;20014;-59
2022/05/13 05:00:45;;;;;;;8.73;5.60;;;16.80;31.10;;;;;;7367663;19;20481;-60
2022/05/13 05:03:16;;;;;;;8.75;5.93;;;16.90;31.10;;;;;;7359929;19;20035;-59
2022/05/13 05:05:46;;;;;;;7.57;5.43;;;16.90;30.30;;;;;;7365100;19;20031;-59
2022/05/13 05:08:17;;;;;;;8.20;5.55;;;16.90;30.10;;;;;;7388471;19;20021;-60
2022/05/13 05:10:50;;;;;;;8.80;5.32;;;16.90;29.70;;;;;;7366785;19;20007;-60
2022/05/13 05:13:22;;;;;;;9.57;5.50;;;16.90;29.30;;;;;;7360555;19;20371;-60
2022/05/13 05:15:52;;;;;;;8.82;6.20;;;17.00;29.00;;;;;;7364161;19;20078;-59
2022/05/13 05:18:22;;;;;;;9.45;5.30;;;17.00;28.20;;;;;;7367075;19;20017;-60
2022/05/13 05:20:53;;;;;;;9.48;5.10;;;17.00;26.90;;;;;;7365787;19;20021;-60
2022/05/13 05:23:24;;;;;;;9.13;5.10;;;17.10;25.80;;;;;;7362271;19;20086;-59
2022/05/13 05:25:57;;;;;;;8.10;5.20;;;17.10;26.70;;;;;;7385755;19;20015;-60
2022/05/13 05:28:28;;;;;;;8.55;5.47;;;17.10;25.00;;;;;;7366036;19;20506;-60
2022/05/13 05:31:00;;;;;;;8.40;5.32;;;17.00;25.10;;;;;;7364790;19;20098;-60
2022/05/13 05:33:30;;;;;;;7.05;4.82;;;17.30;26.40;;;;;;7360389;19;20482;-60
2022/05/13 05:36:00;;;;;;;8.27;5.22;;;17.40;24.50;;;;;;7363782;19;20015;-60
2022/05/13 05:38:30;;;;;;;9.73;5.32;;;17.30;21.70;;;;;;7365909;19;20078;-60
2022/05/13 05:41:03;;;;;;;9.63;5.30;;;17.50;20.20;;;;;;7387175;19;20010;-60
2022/05/13 05:43:35;;;;;;;10.38;5.57;;;17.40;18.50;;;;;;7357540;19;20441;-60
2022/05/13 05:46:05;;;;;;;7.15;4.80;;;17.40;20.00;;;;;;7364583;19;20124;-60
2022/05/13 05:48:35;;;;;;;11.15;5.38;;;17.40;19.20;;;;;;7363761;19;20005;-61
2022/05/13 05:51:05;;;;;;;9.90;5.60;;;17.40;19.30;;;;;;7366021;19;20011;-60
2022/05/13 05:59:03;;;;;;;10.13;5.20;;;17.20;20.70;;;;;;7364858;19;20487;-61
2022/05/13 06:01:33;;;;;;;9.07;5.18;;;17.10;18.70;;;;;;7365583;19;20006;-60
2022/05/13 06:04:03;;;;;;;7.57;5.30;;;17.10;19.90;;;;;;7357337;19;20125;-61
2022/05/13 06:06:33;;;;;;;8.48;4.60;;;17.20;20.00;;;;;;7364080;19;20018;-60
2022/05/13 06:09:03;;;;;;;8.23;5.13;;;17.20;20.80;;;;;;7363411;19;20020;-60
2022/05/13 06:11:36;;;;;;;8.85;4.63;;;17.10;21.10;;;;;;7363374;19;20107;-60
2022/05/13 06:14:09;;;;;;;9.50;5.13;;;16.90;21.50;;;;;;7379742;19;20025;-60
2022/05/13 06:16:39;;;;;;;9.90;4.80;;;17.30;22.20;;;;;;7363903;19;20018;-60
2022/05/13 06:19:09;;;;;;;7.78;4.93;;;17.20;19.10;;;;;;7363687;19;20410;-59
2022/05/13 06:21:39;;;;;;;9.20;4.35;;;17.40;20.80;;;;;;7364069;19;20078;-60
2022/05/13 06:24:10;;;;;;;7.38;4.65;;;17.40;18.90;;;;;;7356776;19;20097;-61
2022/05/13 06:26:43;;;;;;;11.13;4.68;;;17.60;17.30;;;;;;7364067;19;20526;-61
2022/05/13 06:29:13;;;;;;;8.85;4.68;;;17.70;16.00;;;;;;7386930;19;20107;-61
2022/05/13 06:31:43;;;;;;;10.88;4.00;;;17.80;13.10;;;;;;7364642;19;20632;-61
2022/05/13 06:34:14;;;;;;;9.93;4.07;;;17.60;11.30;;;;;;7355610;19;20093;-62
2022/05/13 06:36:44;;;;;;;11.68;4.32;;;17.70;13.10;;;;;;7363511;19;20013;-61
2022/05/13 06:39:14;;;;;;;7.25;4.43;;;17.80;11.90;;;;;;7364096;19;20470;-61
2022/05/13 06:41:47;;;;;;;8.88;4.60;;;17.90;11.20;;;;;;7362962;19;20014;-60
2022/05/13 06:44:18;;;;;;;8.60;4.15;;;17.60;10.20;;;;;;7377319;19;20018;-61
2022/05/13 06:46:48;;;;;;;8.68;4.38;;;17.70;12.60;;;;;;7363330;19;20021;-60
2022/05/13 06:49:18;;;;;;;7.88;4.03;;;17.80;11.10;;;;;;7363417;19;20011;-60
2022/05/13 06:51:52;;;;;;;13.32;4.20;;;17.60;10.20;;;;;;7363974;19;20026;-61
2022/05/13 06:54:22;;;;;;;11.27;4.30;;;17.60;12.30;;;;;;7354206;19;20015;-62
2022/05/13 06:56:54;;;;;;;9.88;6.22;;;17.80;10.40;;;;;;7363767;19;20010;-60
2022/05/13 06:59:25;;;;;;;7.47;4.28;;;18.00;9.10;;;;;;7364225;19;20364;-60
2022/05/13 07:01:55;;;;;;;9.13;3.58;;;18.20;8.60;;;;;;7391911;19;20455;-60
2022/05/13 07:04:24;;;;;;;8.95;4.45;;;18.00;7.30;;;;;;7359912;19;20006;-60
2022/05/13 07:06:54;;;;;;;9.77;3.80;;;18.30;6.00;;;;;;7368827;19;20516;-60
2022/05/13 07:09:24;;;;;;;7.13;4.05;;;18.10;6.00;;;;;;7369650;19;20486;-60
2022/05/13 07:11:57;;;;;;;8.63;3.42;;;18.20;8.00;;;;;;7370698;19;20012;-59
2022/05/13 07:14:27;;;;;;;7.45;3.63;;;17.70;5.60;;;;;;7359237;19;20082;-60
2022/05/13 07:16:57;;;;;;;6.28;3.03;;;18.00;6.00;;;;;;7391425;19;20010;-59
2022/05/13 07:19:27;;;;;;;10.25;4.07;;;18.00;5.70;;;;;;7369236;19;20014;-61
2022/05/13 07:21:57;;;;;;;6.45;3.20;;;17.90;3.20;;;;;;7369385;19;20018;-60
2022/05/13 07:24:27;;;;;;;9.90;3.60;;;17.80;3.60;;;;;;7356719;19;20019;-60
2022/05/13 07:27:00;;;;;;;9.60;3.60;;;17.90;4.10;;;;;;7369251;19;20046;-60
2022/05/13 07:29:30;;;;;;;10.05;3.28;;;17.80;3.80;;;;;;7369866;19;20019;-60
2022/05/13 07:32:00;;;;;;;9.90;3.50;;;18.00;4.10;;;;;;7391068;19;20139;-60
2022/05/13 07:34:30;;;;;;;6.82;3.58;;;18.10;2.90;;;;;;7359447;19;20017;-60
2022/05/13 07:37:00;;;;;;;7.25;3.47;;;18.40;1.80;;;;;;7368679;19;20046;-60
2022/05/13 07:42:15;;;;;;;7.20;3.40;;;18.50;2.00;;;;;;7369154;19;20085;-60
2022/05/13 07:44:45;;;;;;;7.15;2.90;;;18.60;1.00;;;;;;7360193;19;20034;-60
2022/05/13 07:47:15;;;;;;;5.70;3.28;;;18.90;1.00;;;;;;7390066;19;20108;-60
2022/05/13 07:49:45;;;;;;;6.43;2.85;;;18.70;1.00;;;;;;7369050;19;20007;-60
2022/05/13 07:52:15;;;;;;;5.38;3.00;;;18.30;1.00;;;;;;7366308;19;20475;-60
2022/05/13 07:54:45;;;;;;;5.78;2.78;;;18.50;1.00;;;;;;7362627;19;20020;-60
2022/05/13 07:57:20;;;;;;;6.72;3.00;;;18.10;1.00;;;;;;7369285;19;20086;-60
2022/05/13 08:02:33;;;;;;;9.13;2.80;;;18.50;1.00;;;;;;7365126;19;20014;-59
2022/05/13 08:05:02;;;;;;;5.25;2.72;;;18.40;1.00;;;;;;7382517;19;20081;-59
2022/05/13 08:07:32;;;;;;;5.60;2.90;;;18.40;1.00;;;;;;7367970;19;20356;-60
2022/05/13 08:10:02;;;;;;;8.27;2.83;;;18.50;1.00;;;;;;7368420;19;20029;-60
2022/05/13 08:12:35;;;;;;;5.60;2.65;;;18.60;1.00;;;;;;7362215;19;20101;-61
2022/05/13 08:15:05;;;;;;;7.45;2.70;;;18.90;1.00;;;;;;7362760;19;20010;-61
2022/05/13 08:17:35;;;;;;;7.95;3.10;;;18.80;1.00;;;;;;7367917;19;20011;-60
2022/05/13 08:20:06;;;;;;;6.10;3.22;;;19.10;1.00;;;;;;7389604;19;20007;-60
2022/05/13 08:22:36;;;;;;;7.22;2.88;;;19.20;1.00;;;;;;7363374;19;20007;-60
2022/05/13 08:25:07;;;;;;;5.97;2.95;;;18.70;1.00;;;;;;7360997;19;20509;-60
2022/05/13 08:27:40;;;;;;;6.50;3.05;;;18.90;1.00;;;;;;7367292;19;20012;-60
2022/05/13 08:30:11;;;;;;;9.95;3.60;;;19.40;1.00;;;;;;7368661;19;20014;-60
2022/05/13 08:32:42;;;;;;;7.97;3.22;;;19.40;1.00;;;;;;7365570;19;20091;-60
2022/05/13 08:35:13;;;;;;;5.40;2.50;;;19.50;1.00;;;;;;7384928;19;20094;-59
2022/05/13 08:37:48;;;;;;;;;;;19.70;1.00;;;;;;7367106;19;20014;-60
2022/05/13 08:40:28;;;;;;;6.30;2.28;;;19.90;1.00;;;;;;7367211;19;20303;-60
2022/05/13 08:43:06;;;;;;;6.63;3.28;;;19.40;1.00;;;;;;7360847;19;20089;-60
2022/05/13 08:45:39;;;;;;;5.72;2.60;;;19.40;1.00;;;;;;7366183;19;20031;-60
2022/05/13 08:48:11;;;;;;;6.78;2.80;;;19.70;1.00;;;;;;7367043;19;20006;-60
2022/05/13 08:50:52;;;;;;;10.95;3.20;;;19.20;1.00;;;;;;7367020;19;20020;-60
2022/05/13 08:53:32;;;;;;;4.85;2.45;;;19.80;1.00;;;;;;7372102;19;20474;-60
2022/05/13 08:56:05;;;;;;;5.78;2.92;;;19.80;1.00;;;;;;7386236;19;20167;-60
2022/05/13 08:58:45;;;;;;;7.35;3.20;;;19.80;1.00;;;;;;7366766;19;20014;-60
2022/05/13 09:01:22;;;;;;;5.90;3.22;;;19.90;1.00;;;;;;7364580;19;20513;-59
2022/05/13 09:03:55;;;;;;;7.70;3.55;;;19.50;1.00;;;;;;7358648;19;20031;-61
2022/05/13 09:06:33;;;;;;;7.35;3.53;;;19.10;1.00;;;;;;7366482;19;20023;-60
2022/05/13 09:09:05;;;;;;;10.55;3.00;;;18.90;1.00;;;;;;7367951;19;20010;-59
2022/05/13 09:11:41;;;;;;;5.65;2.83;;;19.20;1.00;;;;;;7367346;19;20596;-60
2022/05/13 09:14:24;;;;;;;5.72;3.10;;;19.30;1.00;;;;;;7378294;19;20074;-60
2022/05/13 09:17:10;;;;;;;8.70;2.53;;;20.00;1.00;;;;;;7366188;19;20015;-59
2022/05/13 09:19:47;;;;;;;5.07;2.35;;;20.20;1.00;;;;;;7366566;19;20339;-61
2022/05/13 09:22:17;;;;;;;6.25;2.42;;;20.30;1.00;;;;;;7363489;19;20006;-60
2022/05/13 09:24:48;;;;;;;5.95;2.78;;;20.80;1.00;;;;;;7359217;19;20035;-60
2022/05/13 09:27:48;;;;;;;9.82;3.88;;;21.10;1.00;;;;;;7366021;19;20010;-60
2022/05/13 09:30:28;;;;;;;6.82;3.17;;;20.60;1.00;;;;;;7364450;19;20086;-62
2022/05/13 09:32:58;;;;;;;6.63;3.17;;;19.80;1.00;;;;;;7360315;19;20021;-60
2022/05/13 09:35:37;;;;;;;5.47;3.13;;;20.30;1.00;;;;;;7363571;19;20014;-61
2022/05/13 09:38:16;;;;;;;6.85;3.50;;;20.50;1.00;;;;;;7387274;19;20093;-59
2022/05/13 09:40:59;;;;;;;9.25;4.10;;;19.40;1.00;;;;;;7366347;19;20090;-60
2022/05/13 09:43:36;;;;;;;8.65;3.83;;;19.40;1.00;;;;;;7357699;19;20011;-59
2022/05/13 09:46:11;;;;;;;7.68;3.45;;;19.40;1.00;;;;;;7363282;19;20582;-60
2022/05/13 09:48:53;;;;;;;9.93;3.53;;;19.00;1.00;;;;;;7365617;19;20042;-59
2022/05/13 09:51:30;;;;;;;5.95;3.55;;;19.10;1.00;;;;;;7365163;19;20021;-61
2022/05/13 09:54:13;;;;;;;3.95;3.40;;;19.30;1.00;;;;;;7357434;19;20019;-60
2022/05/13 09:56:48;;;;;;;7.40;3.78;;;19.00;1.00;;;;;;7363985;19;20014;-60
2022/05/13 09:59:23;;;;;;;7.20;3.55;;;19.40;1.00;;;;;;7386267;19;20014;-59
2022/05/13 10:01:56;;;;;;;6.45;3.08;;;19.00;1.00;;;;;;7365220;19;20003;-60
2022/05/13 10:04:28;;;;;;;5.80;3.50;;;19.20;1.00;;;;;;7354654;19;20034;-61
2022/05/13 10:07:06;;;;;;;6.20;3.00;;;19.30;1.00;;;;;;7362882;19;20396;-60
2022/05/13 10:15:20;;;;;;;7.45;2.78;;;19.30;1.00;;;;;;7359957;19;20036;-60
2022/05/13 10:17:57;;;;;;;5.47;3.17;;;19.10;1.00;;;;;;7363635;19;20014;-61
2022/05/13 10:20:31;;;;;;;9.07;3.28;;;18.90;1.00;;;;;;7364380;19;20093;-59
2022/05/13 10:23:07;;;;;;;7.80;3.55;;;19.30;1.00;;;;;;7378454;19;20014;-60
2022/05/13 10:25:48;;;;;;;7.40;3.03;;;19.50;1.00;;;;;;7358994;19;20011;-60
2022/05/13 10:28:21;;;;;;;6.65;3.05;;;19.50;1.00;;;;;;7361921;19;20467;-60
2022/05/13 10:30:54;;;;;;;6.40;2.88;;;19.90;1.00;;;;;;7360938;19;20068;-60
2022/05/13 10:33:33;;;;;;;6.40;2.65;;;19.80;1.00;;;;;;7354447;19;20111;-59
2022/05/13 10:36:08;;;;;;;6.00;2.35;;;19.50;1.00;;;;;;7364992;19;20816;-61
2022/05/13 10:38:44;;;;;;;6.55;2.72;;;19.90;1.00;;;;;;7367994;19;20065;-60
2022/05/13 10:41:25;;;;;;;5.90;3.05;;;19.30;1.00;;;;;;7390173;19;20077;-60
2022/05/13 10:44:01;;;;;;;8.18;3.10;;;19.90;1.00;;;;;;7359513;19;20121;-60
2022/05/13 10:46:51;;;;;;;12.30;3.17;;;20.30;1.00;;;;;;7365718;19;20024;-60
2022/05/13 10:49:42;;;;;;;7.25;2.60;;;19.80;1.00;;;;;;7367825;19;20063;-60
2022/05/13 10:52:28;;;;;;;4.15;2.60;;;19.80;1.00;;;;;;7366838;19;20039;-61
2022/05/13 10:55:05;;;;;;;5.72;2.90;;;20.50;1.00;;;;;;7364969;19;20018;-59
2022/05/13 10:57:40;;;;;;;7.22;3.25;;;21.00;1.00;;;;;;7369562;19;20007;-59
2022/05/13 11:00:16;;;;;;;6.25;3.10;;;20.70;1.00;;;;;;7370608;19;20137;-59
2022/05/13 11:03:15;;;;;;;5.88;3.03;;;21.00;1.00;;;;;;7363874;19;20380;-60
2022/05/13 11:05:58;;;;;;;7.35;2.80;;;20.50;1.00;;;;;;7365222;19;20086;-60
2022/05/13 11:08:34;;;;;;;8.88;2.92;;;20.60;1.00;;;;;;7367822;19;20069;-61
2022/05/13 11:11:15;;;;;;;4.95;2.60;;;21.10;1.00;;;;;;7390129;19;20021;-60
2022/05/13 11:13:52;;;;;;;4.35;2.92;;;21.50;1.00;;;;;;7359809;19;20074;-59
2022/05/13 11:16:37;;;;;;;3.25;2.58;;;21.40;1.00;;;;;;7367943;19;20010;-61
2022/05/13 11:19:14;;;;;;;6.72;2.47;;;20.90;1.00;;;;;;7369334;19;20081;-60
2022/05/13 11:21:54;;;;;;;5.25;2.53;;;21.90;1.00;;;;;;7370700;19;20021;-60
2022/05/13 11:27:30;;;;;;;7.78;2.67;;;20.20;1.00;;;;;;7368375;19;20021;-60
2022/05/13 11:30:17;;;;;;;8.57;2.63;;;20.80;1.00;;;;;;7369785;19;20018;-61
2022/05/13 11:32:52;;;;;;;4.78;2.47;;;20.10;1.00;;;;;;7365496;19;20014;-59
2022/05/13 11:35:39;;;;;;;6.60;2.63;;;20.40;1.00;;;;;;7364062;19;20011;-60
2022/05/13 11:38:18;;;;;;;5.50;3.13;;;20.90;1.00;;;;;;7389961;19;20428;-59
2022/05/13 11:40:56;;;;;;;9.40;3.13;;;20.60;1.00;;;;;;7367975;19;20010;-61
2022/05/13 11:43:53;;;;;;;7.80;2.78;;;20.40;1.00;;;;;;7358881;19;20021;-61
2022/05/13 11:46:32;;;;;;;8.30;2.92;;;20.60;1.00;;;;;;7362806;19;20473;-60
2022/05/13 11:49:20;;;;;;;3.28;1.98;;;20.80;1.00;;;;;;7365360;19;20575;-61
2022/05/13 11:51:50;;;;;;;4.28;2.47;;;21.40;1.00;;;;;;7365934;19;20010;-60
2022/05/13 11:54:31;;;;;;;5.50;2.28;;;22.50;1.00;;;;;;7358254;19;20019;-60
2022/05/13 11:57:27;;;;;;;8.55;2.80;;;21.90;1.00;;;;;;7367418;19;20013;-60
2022/05/13 12:00:18;;;;;;;4.20;2.40;;;21.80;1.00;;;;;;7367734;19;20031;-60
2022/05/13 12:02:54;;;;;;;7.95;2.58;;;22.50;1.00;;;;;;7362445;19;20480;-60
2022/05/13 12:05:31;;;;;;;7.28;2.38;;;22.10;1.00;;;;;;7362063;19;20022;-59
2022/05/13 12:08:21;;;;;;;5.47;2.58;;;22.40;1.00;;;;;;7389062;19;20014;-60
2022/05/13 12:11:14;;;;;;;9.75;2.45;;;22.60;1.00;;;;;;7365733;19;20027;-61
2022/05/13 12:13:50;;;;;;;7.80;2.40;;;21.30;1.00;;;;;;7356647;19;20018;-60
2022/05/13 12:16:32;;;;;;;7.78;2.17;;;22.40;1.00;;;;;;7365873;19;20021;-59
2022/05/13 12:19:28;;;;;;;9.00;2.88;;;22.50;1.00;;;;;;7366518;19;20119;-60
2022/05/13 12:22:08;;;;;;;5.55;2.38;;;22.60;1.00;;;;;;7367148;19;20014;-60
2022/05/13 12:24:58;;;;;;;6.40;2.55;;;22.30;1.00;;;;;;7359180;19;20082;-61
2022/05/13 12:27:38;;;;;;;7.68;2.28;;;21.50;1.00;;;;;;7364017;19;20014;-60
2022/05/13 12:30:14;;;;;;;6.38;2.30;;;21.40;1.00;;;;;;7368254;19;20011;-61
2022/05/13 12:32:47;;;;;;;8.30;2.60;;;21.70;1.00;;;;;;7363299;19;20014;-60
2022/05/13 12:38:15;;;;;;;5.97;2.25;;;21.10;1.00;;;;;;7367008;19;20027;-60
2022/05/13 12:40:58;;;;;;;4.97;2.03;;;21.20;1.00;;;;;;7365343;19;20021;-59
2022/05/13 12:43:49;;;;;;;5.55;1.90;;;21.30;1.00;;;;;;7357951;19;20017;-60
2022/05/13 12:46:22;;;;;;;4.20;1.83;;;21.30;1.00;;;;;;7362098;19;21089;-61
2022/05/13 12:49:06;;;;;;;2.63;1.50;;;21.70;1.00;;;;;;7362323;19;20709;-60
2022/05/13 12:51:48;;;;;;;4.28;1.90;;;21.50;1.00;;;;;;7365889;19;20077;-60
2022/05/13 12:54:24;;;;;;;3.53;1.65;;;21.80;1.00;;;;;;7354316;19;20085;-61
2022/05/13 12:56:59;;;;;;;4.18;1.80;;;22.00;1.00;;;;;;7364870;19;20585;-60
2022/05/13 12:59:55;;;;;;;4.80;2.00;;;22.60;1.00;;;;;;7367189;19;20508;-61
2022/05/13 13:02:27;;;;;;;4.70;1.80;;;22.30;1.00;;;;;;7362912;19;20011;-60
2022/05/13 13:05:07;;;;;;;6.00;1.85;;;22.80;1.00;;;;;;7382625;19;20022;-59
2022/05/13 13:07:39;;;;;;;3.08;1.50;;;22.90;1.00;;;;;;7364961;19;20467;-60
2022/05/13 13:10:10;;;;;;;2.97;1.70;;;22.30;1.00;;;;;;7365498;19;20070;-60
2022/05/13 13:12:44;;;;;;;5.05;2.10;;;22.00;1.00;;;;;;7361160;19;20105;-60
2022/05/13 13:15:37;;;;;;;6.40;1.80;;;22.70;1.00;;;;;;7363091;19;20066;-59
2022/05/13 13:18:10;;;;;;;3.42;1.70;;;22.60;1.00;;;;;;7366224;19;20060;-59
2022/05/13 13:20:55;;;;;;;6.15;2.10;;;22.70;1.00;;;;;;7366970;19;20012;-59
2022/05/13 13:23:27;;;;;;;4.05;1.70;;;22.80;1.00;;;;;;7357002;19;20684;-60
2022/05/13 13:25:58;;;;;;;4.85;1.88;;;22.30;1.00;;;;;;7384348;19;20098;-59
2022/05/13 13:28:31;;;;;;;3.28;1.65;;;21.80;1.00;;;;;;7365267;19;20112;-59
2022/05/13 13:31:05;;;;;;;4.03;1.70;;;22.30;1.00;;;;;;7367039;19;20053;-59
2022/05/13 13:33:37;;;;;;;6.80;1.90;;;21.90;1.00;;;;;;7358232;19;20011;-59
2022/05/13 13:36:10;;;;;;;3.53;1.50;;;22.10;1.00;;;;;;7365340;19;20094;-60
2022/05/13 13:38:41;;;;;;;6.05;1.83;;;22.50;1.00;;;;;;7365878;19;20011;-60
2022/05/13 13:41:11;;;;;;;5.30;1.50;;;22.40;1.00;;;;;;7385660;19;20020;-59
2022/05/13 13:43:41;;;;;;;4.72;1.55;;;22.00;1.00;;;;;;7356063;19;20565;-59
2022/05/13 13:46:18;;;;;;;6.93;1.88;;;21.60;1.00;;;;;;7364761;19;20490;-60
2022/05/13 13:48:53;;;;;;;4.60;1.75;;;21.70;1.00;;;;;;7365296;19;20040;-60
2022/05/13 13:51:26;;;;;;;5.95;1.60;;;22.20;1.00;;;;;;7365791;19;20014;-60
2022/05/13 13:54:00;;;;;;;7.40;2.13;;;22.60;1.00;;;;;;7355492;19;20022;-60
2022/05/13 13:56:34;;;;;;;3.72;1.40;;;22.90;1.00;;;;;;7364837;19;20018;-59